Time;durP1;ratioP1;P1;durP2;ratioP2;P2;SDS_P1;SDS_P2;PMS_P1;PMS_P2;Temp;Humidity;BMP_temperature;BMP_pressure;BME280_temperature;BME280_humidity;BME280_pressure;Samples;Min_cycle;Max_cycle;Signal;HPM_P1;HPM_P2
2021/04/18 00:01:46;;;;;;;8.18;5.38;;;;;;;2.65;86.64;98875.72;4983634;28;20077;-73
2021/04/18 00:04:15;;;;;;;10.85;5.35;;;;;;;2.62;86.72;98878.28;4985245;28;20162;-73
2021/04/18 00:06:41;;;;;;;7.47;5.40;;;;;;;2.63;87.11;98876.56;4986571;28;20034;-73
2021/04/18 00:09:10;;;;;;;7.05;5.10;;;;;;;2.66;87.38;98874.84;4988278;28;20030;-71
2021/04/18 00:11:36;;;;;;;7.93;5.10;;;;;;;2.67;87.14;98868.81;4991220;28;20049;-71
2021/04/18 00:14:03;;;;;;;6.10;4.78;;;;;;;2.70;87.78;98867.97;4989060;28;20468;-73
2021/04/18 00:16:28;;;;;;;6.90;4.43;;;;;;;2.72;87.28;98867.09;4974027;28;20026;-73
2021/04/18 00:18:56;;;;;;;7.82;4.85;;;;;;;2.74;87.20;98867.97;4979185;28;20484;-73
2021/04/18 00:21:21;;;;;;;;;;;;;;;2.74;87.08;98867.09;4969416;28;20492;-73
2021/04/18 00:23:47;;;;;;;7.68;5.00;;;;;;;2.76;87.07;98865.34;4988207;28;19914;-72
2021/04/18 00:26:12;;;;;;;7.43;5.50;;;;;;;2.78;86.76;98861.03;4979880;28;20524;-72
2021/04/18 00:28:37;;;;;;;7.13;5.00;;;;;;;2.78;86.87;98856.75;4986487;28;20031;-72
2021/04/18 00:31:03;;;;;;;7.57;5.45;;;;;;;2.79;86.23;98863.63;4989552;28;20041;-72
2021/04/18 00:33:28;;;;;;;10.25;5.88;;;;;;;2.75;86.53;98853.34;4989513;28;20393;-74
2021/04/18 00:35:54;;;;;;;8.00;5.40;;;;;;;2.72;87.81;98850.75;4989311;28;20034;-71
2021/04/18 00:38:20;;;;;;;6.25;5.03;;;;;;;2.74;87.40;98847.31;4989031;28;20029;-72
2021/04/18 00:40:46;;;;;;;9.32;6.05;;;;;;;2.70;87.57;98842.16;4989928;28;20468;-72
2021/04/18 00:43:12;;;;;;;7.15;5.18;;;;;;;2.66;87.04;98841.28;4989272;28;20035;-72
2021/04/18 00:45:37;;;;;;;6.75;5.13;;;;;;;2.66;86.95;98843.00;4987428;28;20037;-72
2021/04/18 00:48:04;;;;;;;7.35;4.85;;;;;;;2.62;87.23;98836.13;4988578;28;20034;-73
2021/04/18 00:50:31;;;;;;;7.32;5.13;;;;;;;2.64;86.90;98839.56;4989591;28;20042;-72
2021/04/18 00:52:58;;;;;;;7.80;5.55;;;;;;;2.68;86.90;98844.72;4988292;28;20034;-72
2021/04/18 00:55:27;;;;;;;7.15;5.47;;;;;;;2.67;87.03;98836.97;4987382;28;20078;-73
2021/04/18 00:57:54;;;;;;;6.75;4.53;;;;;;;2.69;87.46;98836.13;4987394;28;20471;-73
2021/04/18 01:00:21;;;;;;;7.18;5.38;;;;;;;2.72;87.80;98838.72;4970903;28;20031;-72
2021/04/18 01:02:47;;;;;;;7.00;5.40;;;;;;;2.73;86.50;98829.22;4989000;28;20053;-72
2021/04/18 01:05:13;;;;;;;7.85;5.10;;;;;;;2.73;86.89;98829.22;4988826;28;20469;-72
2021/04/18 01:07:38;;;;;;;6.32;4.85;;;;;;;2.75;86.86;98835.25;4989080;28;20046;-73
2021/04/18 01:10:06;;;;;;;6.70;4.55;;;;;;;2.75;86.72;98835.25;4989010;28;20030;-73
2021/04/18 01:12:32;;;;;;;7.88;4.53;;;;;;;2.76;87.02;98840.38;4988863;28;20026;-72
2021/04/18 01:14:57;;;;;;;7.03;5.22;;;;;;;2.78;87.04;98833.50;4988989;28;20030;-72
2021/04/18 01:17:23;;;;;;;6.88;4.75;;;;;;;2.76;87.02;98836.94;4989491;28;20611;-73
2021/04/18 01:19:48;;;;;;;8.25;5.43;;;;;;;2.76;86.84;98829.19;4992395;28;20106;-73
2021/04/18 01:22:14;;;;;;;6.57;4.78;;;;;;;2.76;87.03;98816.28;4986998;28;20023;-73
2021/04/18 01:24:42;;;;;;;7.85;5.50;;;;;;;2.81;87.03;98822.31;4978442;28;20282;-73
2021/04/18 01:27:07;;;;;;;8.63;5.07;;;;;;;2.75;87.86;98822.34;4991702;28;20134;-73
2021/04/18 01:29:33;;;;;;;8.35;5.60;;;;;;;2.65;87.90;98823.22;4993592;28;20033;-73
2021/04/18 01:31:59;;;;;;;12.30;6.70;;;;;;;2.63;87.95;98823.22;4992689;28;20022;-73
2021/04/18 01:34:25;;;;;;;7.07;4.82;;;;;;;2.64;87.28;98821.50;4992675;28;20483;-72
2021/04/18 01:36:51;;;;;;;10.38;5.53;;;;;;;2.65;87.89;98821.50;4992467;28;20038;-73
2021/04/18 01:39:16;;;;;;;6.38;4.75;;;;;;;2.63;87.38;98818.06;4992534;28;20357;-72
2021/04/18 01:41:43;;;;;;;6.63;5.07;;;;;;;2.63;87.17;98815.47;4991441;28;20023;-73
2021/04/18 01:44:15;;;;;;;7.22;5.07;;;;;;;2.63;87.57;98812.03;4991083;28;20579;-72
2021/04/18 01:46:45;;;;;;;7.43;5.47;;;;;;;2.59;87.71;98805.19;4992240;28;20451;-73
2021/04/18 01:49:11;;;;;;;8.75;5.57;;;;;;;2.60;87.59;98810.31;4992918;28;20109;-72
2021/04/18 01:51:37;;;;;;;8.88;5.07;;;;;;;2.59;87.50;98807.75;4994144;28;20117;-73
2021/04/18 01:54:03;;;;;;;8.48;5.30;;;;;;;2.59;87.15;98816.38;4992203;28;20042;-73
2021/04/18 01:56:29;;;;;;;7.03;5.00;;;;;;;2.59;88.15;98818.09;4991976;28;20026;-73
2021/04/18 01:58:55;;;;;;;8.80;5.25;;;;;;;2.58;87.97;98814.66;4991513;28;20027;-72
2021/04/18 02:01:21;;;;;;;6.88;4.95;;;;;;;2.59;88.73;98824.09;4986623;28;20031;-73
2021/04/18 02:03:46;;;;;;;5.93;4.72;;;;;;;2.60;88.77;98823.22;4985041;28;20026;-72
2021/04/18 02:06:12;;;;;;;7.03;4.95;;;;;;;2.62;88.65;98828.38;4992185;28;20053;-73
2021/04/18 02:08:37;;;;;;;9.25;5.80;;;;;;;2.63;88.60;98817.19;4991126;28;20076;-73
2021/04/18 02:11:03;;;;;;;7.43;5.63;;;;;;;2.62;88.83;98818.91;4992477;28;20095;-73
2021/04/18 02:13:30;;;;;;;9.13;5.93;;;;;;;2.62;88.94;98818.91;4991212;28;20060;-73
2021/04/18 02:15:56;;;;;;;7.55;5.72;;;;;;;2.63;89.16;98820.63;4992142;28;20087;-72
2021/04/18 02:18:22;;;;;;;8.48;5.85;;;;;;;2.62;88.69;98818.06;4984545;28;20528;-73
2021/04/18 02:20:47;;;;;;;8.88;5.88;;;;;;;2.63;89.30;98819.78;4972284;28;20178;-72
2021/04/18 02:23:12;;;;;;;9.80;5.75;;;;;;;2.66;88.79;98812.03;4982411;28;20042;-72
2021/04/18 02:25:38;;;;;;;8.00;5.60;;;;;;;2.65;89.40;98810.31;4992136;28;20053;-73
2021/04/18 02:28:04;;;;;;;9.32;5.95;;;;;;;2.65;88.60;98811.16;4990347;28;20523;-73
2021/04/18 02:30:29;;;;;;;10.15;6.00;;;;;;;2.65;88.94;98811.16;4986788;28;20140;-73
2021/04/18 02:32:55;;;;;;;8.48;6.07;;;;;;;2.64;89.23;98813.75;4991027;28;20021;-72
2021/04/18 02:35:20;;;;;;;8.57;5.95;;;;;;;2.62;88.30;98807.72;4991112;28;20044;-73
2021/04/18 02:37:46;;;;;;;9.73;5.85;;;;;;;2.65;89.23;98821.50;4990617;28;20069;-73
2021/04/18 02:40:12;;;;;;;8.38;5.43;;;;;;;2.66;89.13;98802.56;4992438;28;20118;-72
2021/04/18 02:42:40;;;;;;;10.23;5.50;;;;;;;2.68;89.01;98805.13;4991668;28;20041;-72
2021/04/18 02:45:09;;;;;;;9.15;6.40;;;;;;;2.68;88.76;98795.69;4991926;28;20057;-71
2021/04/18 02:47:35;;;;;;;9.35;6.35;;;;;;;2.63;89.40;98804.28;4974710;28;20043;-72
2021/04/18 02:50:01;;;;;;;9.13;6.22;;;;;;;2.62;89.10;98800.84;4997431;28;20108;-72
2021/04/18 02:52:26;;;;;;;9.15;6.43;;;;;;;2.60;88.49;98806.91;5009874;28;20101;-72
2021/04/18 02:54:52;;;;;;;11.55;6.63;;;;;;;2.60;88.81;98806.91;5010360;28;20459;-72
2021/04/18 02:57:20;;;;;;;11.80;7.22;;;;;;;2.60;88.70;98807.72;5010508;28;20086;-72
2021/04/18 02:59:46;;;;;;;12.45;7.25;;;;;;;2.58;88.41;98808.63;4998325;28;20088;-73
2021/04/18 03:02:11;;;;;;;13.52;7.03;;;;;;;2.62;88.54;98811.16;4991298;28;20034;-73
2021/04/18 03:04:37;;;;;;;8.10;6.35;;;;;;;2.63;88.44;98801.69;4991113;28;20030;-73
2021/04/18 03:07:02;;;;;;;10.23;6.03;;;;;;;2.67;89.14;98800.84;4991267;28;20033;-74
2021/04/18 03:09:27;;;;;;;10.55;6.85;;;;;;;2.65;89.23;98806.00;4992869;28;20026;-73
2021/04/18 03:11:53;;;;;;;9.23;6.50;;;;;;;2.60;88.20;98799.97;4994508;28;20022;-73
2021/04/18 03:14:18;;;;;;;9.18;5.93;;;;;;;2.60;87.78;98806.91;4986722;28;20042;-73
2021/04/18 03:16:46;;;;;;;9.50;6.13;;;;;;;2.66;87.98;98801.69;4984124;28;20030;-73
2021/04/18 03:19:12;;;;;;;9.13;6.38;;;;;;;2.67;87.89;98800.84;4974416;28;20130;-73
2021/04/18 03:21:37;;;;;;;9.13;5.72;;;;;;;2.68;87.39;98807.72;4987646;28;20121;-73
2021/04/18 03:24:04;;;;;;;8.90;6.03;;;;;;;2.67;88.10;98800.84;4990521;28;20026;-73
2021/04/18 03:26:29;;;;;;;8.45;5.85;;;;;;;2.69;87.56;98806.88;4991233;28;20033;-73
2021/04/18 03:28:55;;;;;;;7.65;6.07;;;;;;;2.72;88.38;98809.44;4990881;28;20258;-73
2021/04/18 03:31:20;;;;;;;8.77;6.38;;;;;;;2.74;87.74;98811.16;4979583;28;20062;-73
2021/04/18 03:33:46;;;;;;;7.60;6.07;;;;;;;2.73;87.68;98809.44;4970421;28;20026;-73
2021/04/18 03:36:11;;;;;;;9.02;6.18;;;;;;;2.72;87.41;98807.72;4970417;28;20184;-73
2021/04/18 03:38:37;;;;;;;9.38;6.40;;;;;;;2.73;88.15;98811.16;4970452;28;20030;-73
2021/04/18 03:41:03;;;;;;;7.80;5.80;;;;;;;2.74;87.63;98807.72;4970570;28;20026;-73
2021/04/18 03:43:29;;;;;;;9.57;6.35;;;;;;;2.74;86.98;98807.72;4970315;28;20125;-73
2021/04/18 03:45:54;;;;;;;8.68;6.00;;;;;;;2.75;86.70;98807.69;4988601;28;20120;-73
2021/04/18 03:48:19;;;;;;;9.00;6.00;;;;;;;2.75;86.75;98805.09;4989915;28;20026;-73
2021/04/18 03:50:45;;;;;;;11.98;7.22;;;;;;;2.77;87.68;98797.34;4989470;28;20476;-73
2021/04/18 03:53:13;;;;;;;8.45;6.20;;;;;;;2.74;88.09;98797.38;4989511;28;20057;-73
2021/04/18 03:55:38;;;;;;;8.32;5.85;;;;;;;2.71;88.16;98793.09;4989519;28;20050;-73
2021/04/18 03:58:03;;;;;;;9.18;6.95;;;;;;;2.70;87.79;98791.38;4988920;28;20869;-73
2021/04/18 04:00:29;;;;;;;10.73;7.07;;;;;;;2.63;88.13;98788.78;4979824;28;20026;-73
2021/04/18 04:02:54;;;;;;;9.35;6.22;;;;;;;2.64;89.01;98800.84;4989945;28;20391;-73
2021/04/18 04:05:20;;;;;;;9.18;6.15;;;;;;;2.63;87.89;98801.69;4989995;28;20511;-73
2021/04/18 04:07:46;;;;;;;9.27;6.18;;;;;;;2.63;88.72;98805.16;4988186;28;20045;-73
2021/04/18 04:10:11;;;;;;;8.45;6.68;;;;;;;2.62;89.13;98799.97;4986084;28;20089;-73
2021/04/18 04:12:39;;;;;;;8.80;6.45;;;;;;;2.63;88.54;98804.28;4969161;28;20042;-73
2021/04/18 04:15:06;;;;;;;10.93;6.88;;;;;;;2.65;88.46;98799.97;4970253;28;20476;-73
2021/04/18 04:17:31;;;;;;;9.13;6.43;;;;;;;2.67;88.74;98800.84;4970632;28;20085;-73
2021/04/18 04:19:57;;;;;;;9.55;6.70;;;;;;;2.68;88.81;98799.97;4985607;28;20061;-73
2021/04/18 04:22:22;;;;;;;8.52;6.32;;;;;;;2.70;88.98;98801.69;4988511;28;20120;-73
2021/04/18 04:24:50;;;;;;;8.82;6.30;;;;;;;2.65;88.05;98790.50;4989673;28;20026;-73
2021/04/18 04:27:15;;;;;;;9.60;6.38;;;;;;;2.68;88.29;98798.25;4988386;28;20150;-73
2021/04/18 04:29:41;;;;;;;9.80;6.75;;;;;;;2.71;88.54;98799.97;4989575;28;20062;-72
2021/04/18 04:32:07;;;;;;;10.85;6.40;;;;;;;2.71;88.77;98799.97;4988300;28;20523;-72
2021/04/18 04:34:35;;;;;;;10.18;5.68;;;;;;;2.73;88.81;98804.28;4990050;28;20026;-72
2021/04/18 04:37:00;;;;;;;8.25;5.90;;;;;;;2.73;88.87;98798.25;4988135;28;20026;-72
2021/04/18 04:39:26;;;;;;;8.10;5.07;;;;;;;2.73;88.79;98801.69;5003951;28;20037;-72
2021/04/18 04:41:51;;;;;;;8.13;5.65;;;;;;;2.74;88.22;98810.31;4980592;28;20034;-72
2021/04/18 04:44:17;;;;;;;8.50;5.40;;;;;;;2.75;88.26;98817.19;4990577;28;20109;-72
2021/04/18 04:46:44;;;;;;;7.68;5.38;;;;;;;2.77;88.28;98818.00;4987278;28;20392;-72
2021/04/18 04:49:10;;;;;;;10.48;6.25;;;;;;;2.76;87.49;98822.31;4987626;28;20093;-72
2021/04/18 04:51:38;;;;;;;9.38;6.28;;;;;;;2.77;88.25;98825.75;4996556;28;20451;-72
2021/04/18 04:54:03;;;;;;;8.50;5.90;;;;;;;2.79;88.52;98819.72;4991360;28;20022;-73
2021/04/18 04:56:29;;;;;;;9.27;5.68;;;;;;;2.81;88.04;98832.63;4993028;28;20394;-72
2021/04/18 04:58:54;;;;;;;9.43;5.68;;;;;;;2.82;87.82;98822.31;4993822;28;20030;-72
2021/04/18 05:01:20;;;;;;;8.95;6.35;;;;;;;2.83;87.60;98820.59;4991601;28;20056;-72
2021/04/18 05:03:45;;;;;;;11.88;7.35;;;;;;;2.83;87.63;98820.59;4991080;28;20525;-72
2021/04/18 05:06:11;;;;;;;11.65;6.95;;;;;;;2.81;87.43;98818.00;4991714;28;20031;-72
2021/04/18 05:08:36;;;;;;;9.18;6.35;;;;;;;2.87;87.12;98809.38;4984547;28;20037;-72
2021/04/18 05:11:01;;;;;;;10.77;6.65;;;;;;;2.90;86.53;98821.44;4981561;28;20042;-72
2021/04/18 05:13:27;;;;;;;8.43;5.95;;;;;;;2.97;87.04;98821.41;4989101;28;20161;-73
2021/04/18 05:15:52;;;;;;;10.43;6.50;;;;;;;2.92;86.08;98819.69;4991245;28;20120;-73
2021/04/18 05:18:17;;;;;;;13.05;8.40;;;;;;;2.97;86.70;98818.81;4991335;28;20037;-73
2021/04/18 05:20:45;;;;;;;12.40;8.68;;;;;;;2.98;86.74;98825.69;4991745;28;20033;-73
2021/04/18 05:23:13;;;;;;;;;;;;;;;2.99;86.17;98824.84;4993300;28;20034;-73
2021/04/18 05:25:38;;;;;;;;;;;;;;;3.07;86.34;98827.38;4993145;28;19929;-73
2021/04/18 05:28:03;;;;;;;9.18;6.35;;;;;;;3.12;86.82;98831.66;4992527;28;19968;-73
2021/04/18 05:30:29;;;;;;;10.73;6.22;;;;;;;3.15;85.81;98834.25;4991461;28;20031;-73
2021/04/18 05:32:54;;;;;;;9.13;6.15;;;;;;;3.18;86.23;98829.06;4992156;28;20038;-73
2021/04/18 05:35:22;;;;;;;8.85;5.93;;;;;;;3.20;85.69;98828.19;4989424;28;20026;-72
2021/04/18 05:37:48;;;;;;;9.73;6.55;;;;;;;3.23;85.25;98818.69;4987432;28;20507;-72
2021/04/18 05:40:14;;;;;;;9.70;6.38;;;;;;;3.29;84.80;98829.00;4990966;28;20061;-72
2021/04/18 05:42:39;;;;;;;11.73;7.55;;;;;;;3.34;84.43;98826.41;4984402;28;20069;-72
2021/04/18 05:45:05;;;;;;;8.63;5.80;;;;;;;3.39;83.89;98833.25;4991180;28;20061;-72
2021/04/18 05:47:31;;;;;;;9.40;6.18;;;;;;;3.47;83.57;98823.75;4978081;28;20113;-72
2021/04/18 05:49:59;;;;;;;8.38;6.10;;;;;;;3.56;83.64;98827.13;4992348;28;20037;-72
2021/04/18 05:52:24;;;;;;;8.93;6.65;;;;;;;3.58;83.96;98830.56;4985124;28;20030;-72
2021/04/18 05:54:54;;;;;;;8.80;6.47;;;;;;;3.64;83.37;98828.81;4991310;28;20068;-72
2021/04/18 05:57:20;;;;;;;10.18;6.78;;;;;;;3.70;83.19;98831.34;4989823;28;20041;-72
2021/04/18 05:59:45;;;;;;;10.23;6.78;;;;;;;3.75;83.16;98828.72;4991488;28;20437;-72
2021/04/18 06:02:11;;;;;;;8.95;6.97;;;;;;;3.79;83.17;98836.47;4990803;28;20045;-72
2021/04/18 06:04:36;;;;;;;8.60;7.15;;;;;;;3.75;83.12;98833.91;4978089;28;20094;-74
2021/04/18 06:07:02;;;;;;;13.52;8.35;;;;;;;3.75;82.91;98832.19;4972510;28;20385;-73
2021/04/18 06:09:28;;;;;;;9.07;6.07;;;;;;;3.90;83.00;98831.22;4972252;28;20034;-73
2021/04/18 06:11:54;;;;;;;11.93;7.60;;;;;;;3.86;82.32;98840.72;4981977;28;20038;-71
2021/04/18 06:14:19;;;;;;;9.15;6.47;;;;;;;3.99;82.35;98825.09;4974109;28;20115;-73
2021/04/18 06:16:45;;;;;;;11.88;7.93;;;;;;;4.10;82.49;98836.25;4986591;28;20026;-72
2021/04/18 06:19:10;;;;;;;10.82;7.50;;;;;;;4.09;82.07;98831.94;4981444;28;20117;-71
2021/04/18 06:21:35;;;;;;;9.00;7.45;;;;;;;3.89;81.47;98835.53;4982506;28;20146;-72
2021/04/18 06:24:01;;;;;;;11.15;7.78;;;;;;;3.96;81.74;98838.09;4973089;28;20546;-72
2021/04/18 06:26:26;;;;;;;11.32;7.68;;;;;;;4.19;81.40;98831.84;4972024;28;20144;-72
2021/04/18 06:28:54;;;;;;;12.52;8.13;;;;;;;4.36;81.88;98828.25;4972555;28;20037;-72
2021/04/18 06:31:19;;;;;;;11.25;7.82;;;;;;;4.29;80.78;98830.00;4973783;28;20030;-72
2021/04/18 06:33:45;;;;;;;8.88;6.95;;;;;;;4.48;80.23;98828.13;4991344;28;20210;-72
2021/04/18 06:36:11;;;;;;;10.18;5.88;;;;;;;4.54;80.17;98823.75;4989861;28;20033;-72
2021/04/18 06:38:36;;;;;;;8.23;6.22;;;;;;;4.66;78.83;98834.84;4991534;28;20068;-72
2021/04/18 06:41:02;;;;;;;8.18;6.10;;;;;;;4.73;78.30;98834.78;4991724;28;20034;-72
2021/04/18 06:43:28;;;;;;;8.75;6.03;;;;;;;4.74;78.58;98833.03;4990101;28;20026;-72
2021/04/18 06:45:53;;;;;;;11.80;7.43;;;;;;;4.52;78.60;98840.19;4991140;28;20137;-73
2021/04/18 06:48:20;;;;;;;13.70;8.02;;;;;;;4.54;79.43;98841.88;4991479;28;20067;-72
2021/04/18 06:50:46;;;;;;;11.52;8.20;;;;;;;4.44;79.80;98842.81;4990232;28;20161;-73
2021/04/18 06:53:12;;;;;;;10.52;7.90;;;;;;;4.46;79.68;98842.81;4990204;28;20052;-72
2021/04/18 06:55:38;;;;;;;10.27;8.07;;;;;;;4.49;80.02;98847.97;4989637;28;20109;-72
2021/04/18 06:58:04;;;;;;;9.00;7.30;;;;;;;4.62;79.41;98840.94;4996888;28;20495;-73
2021/04/18 07:00:29;;;;;;;11.63;8.15;;;;;;;4.69;79.68;98845.19;4979750;28;20464;-73
2021/04/18 07:03:09;;;;;;;13.43;8.43;;;;;;;4.83;79.22;98838.13;4989656;28;20145;-73
2021/04/18 07:05:42;;;;;;;11.85;8.23;;;;;;;4.73;78.82;98841.69;4983087;28;20044;-73
2021/04/18 07:08:28;;;;;;;11.15;7.97;;;;;;;5.13;76.87;98835.19;4997359;28;20076;-73
2021/04/18 07:11:15;;;;;;;11.45;8.98;;;;;;;5.29;75.99;98841.91;5004299;28;20038;-73
2021/04/18 07:13:43;;;;;;;8.35;6.65;;;;;;;5.78;74.59;98835.19;5004402;28;20034;-73
2021/04/18 07:16:30;;;;;;;11.18;7.68;;;;;;;5.77;74.01;98847.31;4998334;28;20106;-73
2021/04/18 07:18:57;;;;;;;13.05;8.15;;;;;;;5.94;73.28;98829.78;4981921;28;20117;-74
2021/04/18 07:21:23;;;;;;;10.32;8.15;;;;;;;5.97;71.38;98831.44;4991752;28;20340;-75
2021/04/18 07:23:49;;;;;;;10.10;7.15;;;;;;;6.14;71.09;98829.44;4992321;28;20030;-73
2021/04/18 07:26:27;;;;;;;12.13;8.13;;;;;;;6.09;70.53;98835.59;4990437;28;20594;-73
2021/04/18 07:29:15;;;;;;;11.80;8.07;;;;;;;6.21;70.87;98827.63;4990983;28;20034;-73
2021/04/18 07:31:41;;;;;;;13.93;8.80;;;;;;;6.18;70.93;98825.91;4991673;28;20061;-73
2021/04/18 07:34:13;;;;;;;11.93;8.63;;;;;;;6.29;71.09;98821.41;4992801;28;20120;-72
2021/04/18 07:36:40;;;;;;;11.27;8.85;;;;;;;6.27;71.41;98824.91;4990576;28;20507;-73
2021/04/18 07:39:08;;;;;;;10.38;7.78;;;;;;;5.98;68.41;98830.56;4993034;28;20026;-73
2021/04/18 07:41:55;;;;;;;12.43;6.97;;;;;;;6.25;68.10;98829.28;5006322;28;20034;-73
2021/04/18 07:44:20;;;;;;;10.50;7.05;;;;;;;6.22;69.10;98826.72;4993775;28;20030;-73
2021/04/18 07:46:51;;;;;;;9.68;6.88;;;;;;;6.28;68.68;98834.41;4977563;28;20038;-73
2021/04/18 07:49:18;;;;;;;10.88;7.70;;;;;;;6.00;70.00;98832.25;4968780;28;20066;-73
2021/04/18 07:51:49;;;;;;;13.47;8.27;;;;;;;6.09;70.27;98830.41;4969307;28;20488;-73
2021/04/18 07:54:16;;;;;;;13.32;7.53;;;;;;;6.24;70.97;98832.75;4971343;28;20527;-73
2021/04/18 07:56:43;;;;;;;12.13;7.50;;;;;;;6.73;69.24;98819.75;4993372;28;20075;-73
2021/04/18 07:59:09;;;;;;;15.88;8.38;;;;;;;6.76;66.82;98824.03;5010447;28;20033;-74
2021/04/18 08:01:35;;;;;;;9.85;7.57;;;;;;;6.89;67.42;98826.38;4984769;28;20604;-73
2021/04/18 08:04:01;;;;;;;10.77;7.70;;;;;;;6.84;68.92;98827.34;4970260;28;20038;-72
2021/04/18 08:06:26;;;;;;;11.35;6.60;;;;;;;7.16;67.12;98832.78;4973156;28;20062;-73
2021/04/18 08:08:54;;;;;;;9.88;6.78;;;;;;;7.13;66.97;98830.25;4971429;28;20533;-73
2021/04/18 08:11:23;;;;;;;11.60;7.70;;;;;;;6.49;67.96;98828.00;4971843;28;20089;-72
2021/04/18 08:13:53;;;;;;;13.40;7.80;;;;;;;6.62;68.83;98830.34;4970535;28;20030;-73
2021/04/18 08:16:34;;;;;;;8.73;5.93;;;;;;;7.18;67.02;98825.78;4977234;28;20031;-73
2021/04/18 08:19:08;;;;;;;9.65;6.72;;;;;;;7.55;65.46;98820.66;4970597;28;20432;-73
2021/04/18 08:21:39;;;;;;;11.18;6.78;;;;;;;7.62;65.27;98821.41;4971525;28;20031;-73
2021/04/18 08:24:06;;;;;;;9.57;7.38;;;;;;;7.78;63.39;98817.56;4983675;28;20041;-73
2021/04/18 08:26:34;;;;;;;8.88;7.53;;;;;;;7.95;63.70;98812.78;4996124;28;20041;-73
2021/04/18 08:29:01;;;;;;;;;;;;;;;8.19;62.43;98821.78;4998908;28;20157;-73
2021/04/18 08:31:30;;;;;;;;;;;;;;;8.13;62.89;98819.31;4996428;28;19917;-73
2021/04/18 08:34:00;;;;;;;10.98;6.43;;;;;;;8.57;61.17;98820.84;4996452;28;19918;-74
2021/04/18 08:36:34;;;;;;;10.85;6.53;;;;;;;8.72;60.51;98814.34;4982895;28;20037;-74
2021/04/18 08:39:06;;;;;;;13.23;7.30;;;;;;;8.05;61.51;98822.13;4996251;28;20034;-72
2021/04/18 08:41:39;;;;;;;8.35;5.75;;;;;;;8.55;60.82;98821.78;4989431;28;20173;-73
2021/04/18 08:44:19;;;;;;;13.07;6.40;;;;;;;9.05;58.70;98820.41;4999351;28;20031;-73
2021/04/18 08:46:47;;;;;;;9.40;7.22;;;;;;;8.50;60.87;98823.66;4985482;28;20400;-74
2021/04/18 08:49:29;;;;;;;10.00;6.57;;;;;;;8.35;62.01;98828.38;5000427;28;20030;-74
2021/04/18 08:51:55;;;;;;;9.25;6.70;;;;;;;9.21;59.15;98821.69;4994588;28;20395;-73
2021/04/18 08:54:32;;;;;;;8.77;6.10;;;;;;;9.41;57.89;98816.75;4991629;28;20057;-72
2021/04/18 08:57:01;;;;;;;11.45;7.80;;;;;;;9.87;56.26;98812.75;4988741;28;20125;-74
2021/04/18 08:59:27;;;;;;;7.18;5.38;;;;;;;10.28;55.59;98813.19;5004514;28;20029;-72
2021/04/18 09:01:58;;;;;;;8.77;6.22;;;;;;;10.10;54.63;98810.25;4994326;28;20037;-74
2021/04/18 09:04:23;;;;;;;9.45;6.70;;;;;;;9.29;57.29;98813.66;4998889;28;20042;-73
2021/04/18 09:06:49;;;;;;;9.40;6.45;;;;;;;9.74;57.59;98819.25;4999048;28;20269;-74
2021/04/18 09:09:15;;;;;;;8.82;6.18;;;;;;;10.80;52.64;98807.06;4978828;28;20031;-73
2021/04/18 09:11:46;;;;;;;8.32;6.00;;;;;;;11.06;51.97;98800.88;4976025;28;20117;-74
2021/04/18 09:14:17;;;;;;;11.02;6.50;;;;;;;11.07;50.91;98802.59;4975780;28;20105;-73
2021/04/18 09:16:43;;;;;;;7.30;5.40;;;;;;;11.23;49.60;98804.59;4977164;28;20027;-73
2021/04/18 09:19:30;;;;;;;8.25;5.43;;;;;;;11.16;50.82;98802.25;4989820;28;20022;-73
2021/04/18 09:22:06;;;;;;;10.45;6.00;;;;;;;11.14;52.05;98798.84;4983260;28;20042;-73
2021/04/18 09:24:36;;;;;;;13.38;6.10;;;;;;;10.81;53.94;98811.38;5000495;28;20668;-74
2021/04/18 09:27:04;;;;;;;8.15;6.07;;;;;;;11.48;51.06;98804.50;4982314;28;20077;-73
2021/04/18 09:29:30;;;;;;;10.65;7.18;;;;;;;11.26;50.72;98798.41;4977328;28;20496;-73
2021/04/18 09:31:58;;;;;;;11.90;6.32;;;;;;;11.06;51.31;98808.72;4980227;28;20553;-73
2021/04/18 09:34:24;;;;;;;9.57;5.78;;;;;;;11.01;51.24;98808.03;4987111;28;20022;-73
2021/04/18 09:36:52;;;;;;;8.35;5.50;;;;;;;10.87;50.91;98809.38;4989403;28;20138;-73
2021/04/18 09:39:18;;;;;;;6.22;4.68;;;;;;;11.39;49.94;98806.63;4988999;28;20076;-75
2021/04/18 09:41:45;;;;;;;9.00;5.38;;;;;;;10.66;52.41;98806.69;4989976;28;20091;-74
2021/04/18 09:44:26;;;;;;;8.52;6.00;;;;;;;11.31;49.56;98806.06;4997193;28;20042;-72
2021/04/18 09:46:55;;;;;;;6.85;5.13;;;;;;;11.42;49.47;98809.16;4978890;28;20034;-72
2021/04/18 09:49:21;;;;;;;7.47;5.47;;;;;;;10.77;51.19;98813.25;4984332;28;20519;-73
2021/04/18 09:51:59;;;;;;;10.40;5.30;;;;;;;10.20;53.71;98814.31;4984124;28;20792;-73
2021/04/18 09:54:29;;;;;;;9.13;5.93;;;;;;;9.02;56.26;98818.75;4971537;28;20035;-75
2021/04/18 10:03:42;;;;;;;8.70;5.63;;;;;;;10.82;52.62;98813.09;4981806;28;20029;-72
2021/04/18 10:06:08;;;;;;;8.48;5.80;;;;;;;11.57;49.92;98804.19;4978348;28;20061;-72
2021/04/18 10:08:36;;;;;;;8.70;5.50;;;;;;;12.01;48.87;98804.25;4988949;28;20480;-74
2021/04/18 10:11:08;;;;;;;;;;;;;;;10.70;50.65;98806.50;4990870;28;20061;-73
2021/04/18 10:13:56;;;;;;;9.75;6.05;;;;;;;11.10;50.76;98802.50;4989855;28;20331;-73
2021/04/18 10:16:24;;;;;;;10.57;6.05;;;;;;;12.56;47.07;98802.81;4986565;28;20101;-73
2021/04/18 10:19:15;;;;;;;10.25;5.65;;;;;;;11.74;51.07;98800.91;4991888;28;20026;-73
2021/04/18 10:21:42;;;;;;;8.73;5.32;;;;;;;11.58;49.62;98805.03;4992575;28;20026;-73
2021/04/18 10:24:29;;;;;;;10.48;6.00;;;;;;;11.84;50.27;98801.44;4993117;28;20018;-73
2021/04/18 10:26:54;;;;;;;9.65;5.70;;;;;;;11.48;50.11;98807.13;4991055;28;20049;-73
2021/04/18 10:29:25;;;;;;;9.18;5.93;;;;;;;11.44;49.94;98799.47;4991800;28;20468;-73
2021/04/18 10:31:51;;;;;;;14.90;7.13;;;;;;;11.24;52.58;98802.84;4979639;28;20096;-73
2021/04/18 10:34:16;;;;;;;9.13;5.55;;;;;;;12.19;47.79;98807.88;4982208;28;20428;-73
2021/04/18 10:36:41;;;;;;;8.05;5.43;;;;;;;12.30;46.66;98797.81;4991667;28;20435;-75
2021/04/18 10:39:07;;;;;;;11.93;6.47;;;;;;;11.50;48.89;98794.84;4987043;28;20022;-72
2021/04/18 10:41:32;;;;;;;9.70;6.07;;;;;;;11.74;48.83;98798.28;4973601;28;20026;-73
2021/04/18 10:43:58;;;;;;;10.35;5.18;;;;;;;11.50;49.29;98797.47;4971211;28;20039;-72
2021/04/18 10:46:23;;;;;;;8.35;5.63;;;;;;;11.70;47.56;98790.59;4970337;28;20122;-72
2021/04/18 10:48:48;;;;;;;9.07;5.60;;;;;;;11.43;51.49;98800.38;4987272;28;20034;-73
2021/04/18 10:51:14;;;;;;;9.10;5.22;;;;;;;11.12;51.54;98793.69;4994753;28;20046;-72
2021/04/18 10:53:39;;;;;;;11.05;5.85;;;;;;;10.23;51.69;98798.50;4991553;28;20404;-73
2021/04/18 10:56:07;;;;;;;9.48;5.40;;;;;;;11.00;51.05;98783.63;4991242;28;20030;-72
2021/04/18 10:58:33;;;;;;;10.32;6.25;;;;;;;11.73;50.00;98782.63;4988778;28;20038;-72
2021/04/18 11:00:58;;;;;;;10.60;6.07;;;;;;;12.54;47.66;98781.03;4988946;28;20166;-72
2021/04/18 11:03:24;;;;;;;10.75;5.57;;;;;;;13.57;43.95;98770.31;4991424;28;20036;-73
2021/04/18 11:05:51;;;;;;;8.47;5.67;;;;;;;13.43;44.75;98766.63;4996803;28;20539;-73
2021/04/18 11:08:17;;;;;;;8.93;5.93;;;;;;;13.80;43.82;98757.84;4995686;28;20054;-73
2021/04/18 11:10:43;;;;;;;9.50;5.55;;;;;;;13.43;45.01;98762.22;4990261;28;20092;-73
2021/04/18 11:13:08;;;;;;;8.45;6.05;;;;;;;12.94;44.95;98772.28;4990214;28;20081;-72
2021/04/18 11:15:34;;;;;;;8.02;5.38;;;;;;;12.64;48.31;98776.25;4991423;28;20026;-73
2021/04/18 11:17:59;;;;;;;7.55;4.68;;;;;;;13.32;44.97;98762.69;4992862;28;20045;-73
2021/04/18 11:20:26;;;;;;;10.60;5.53;;;;;;;13.98;42.71;98756.94;4994965;28;20127;-72
2021/04/18 11:22:51;;;;;;;7.90;4.95;;;;;;;13.73;43.42;98757.28;4997802;28;20052;-73
2021/04/18 11:25:17;;;;;;;9.35;6.13;;;;;;;12.46;46.15;98767.41;4987731;28;20708;-73
2021/04/18 11:27:42;;;;;;;10.48;5.57;;;;;;;12.03;49.30;98768.34;4981678;28;20081;-73
2021/04/18 11:30:10;;;;;;;8.70;5.65;;;;;;;13.79;43.66;98756.13;4991619;28;20041;-73
2021/04/18 11:32:37;;;;;;;7.28;5.00;;;;;;;13.46;43.87;98762.03;4986980;28;20042;-72
2021/04/18 11:35:07;;;;;;;8.30;5.40;;;;;;;12.94;44.75;98756.53;4987514;28;20018;-72
2021/04/18 11:37:33;;;;;;;9.70;5.28;;;;;;;12.18;47.72;98765.09;4980199;28;20033;-73
2021/04/18 11:39:58;;;;;;;9.68;5.80;;;;;;;11.33;50.58;98768.44;4981207;28;20388;-73
2021/04/18 11:42:27;;;;;;;8.43;5.43;;;;;;;11.49;49.41;98768.72;4983494;28;20036;-73
2021/04/18 11:44:52;;;;;;;9.07;5.85;;;;;;;11.53;48.56;98771.16;4982632;28;20074;-73
2021/04/18 11:47:19;;;;;;;11.40;5.93;;;;;;;11.14;50.17;98764.84;4985291;28;20097;-73